Time;durP1;ratioP1;P1;durP2;ratioP2;P2;SDS_P1;SDS_P2;PMS_P1;PMS_P2;Temp;Humidity;BMP_temperature;BMP_pressure;BME280_temperature;BME280_humidity;BME280_pressure;Samples;Min_cycle;Max_cycle;Signal;HPM_P1;HPM_P2
2021/12/23 00:01:08;;;;;;;17.90;7.13;;;0.20;99.90;;;;;;4996677;28;20029;-78
2021/12/23 00:03:33;;;;;;;18.00;6.50;;;0.20;99.90;;;;;;4993804;28;20034;-77
2021/12/23 00:05:59;;;;;;;19.20;7.00;;;0.20;99.90;;;;;;4993307;28;20023;-78
2021/12/23 00:08:24;;;;;;;20.80;6.88;;;0.20;99.90;;;;;;4993144;28;20467;-78
2021/12/23 00:10:50;;;;;;;20.60;6.70;;;0.20;99.90;;;;;;4994216;28;20030;-77
2021/12/23 00:13:16;;;;;;;18.95;6.78;;;0.20;99.90;;;;;;4993182;28;20022;-77
2021/12/23 00:23:53;;;;;;;15.57;6.63;;;0.20;99.90;;;;;;4995004;28;20046;-78
2021/12/23 00:26:19;;;;;;;18.88;7.20;;;0.20;99.90;;;;;;4994247;28;20018;-77
2021/12/23 00:28:45;;;;;;;20.05;6.70;;;0.20;99.90;;;;;;4993041;28;20097;-77
2021/12/23 00:31:10;;;;;;;20.85;6.47;;;0.20;99.90;;;;;;4994607;28;20026;-77
2021/12/23 00:33:39;;;;;;;14.70;5.82;;;0.20;99.90;;;;;;4992442;28;20027;-78
2021/12/23 00:36:05;;;;;;;23.05;7.63;;;0.20;99.90;;;;;;5005526;28;20033;-77
2021/12/23 00:38:36;;;;;;;18.13;6.28;;;0.10;99.90;;;;;;4998687;28;20411;-77
2021/12/23 00:41:04;;;;;;;19.33;6.00;;;0.20;99.90;;;;;;4999402;28;20018;-77
2021/12/23 00:43:31;;;;;;;16.70;6.18;;;0.20;99.90;;;;;;5016893;28;20071;-77
2021/12/23 00:45:57;;;;;;;17.83;6.35;;;0.10;99.90;;;;;;5017289;28;20048;-77
2021/12/23 00:48:24;;;;;;;22.75;7.45;;;0.20;99.90;;;;;;5016938;28;20022;-77
2021/12/23 00:50:49;;;;;;;19.58;6.50;;;0.20;99.90;;;;;;4999186;28;20076;-77
2021/12/23 00:53:20;;;;;;;18.25;6.72;;;0.20;99.90;;;;;;4997460;28;20033;-77
2021/12/23 00:55:53;;;;;;;18.70;6.22;;;0.20;99.90;;;;;;4999236;28;20075;-78
2021/12/23 00:58:19;;;;;;;19.55;6.60;;;0.20;99.90;;;;;;4999273;28;20033;-76
2021/12/23 01:00:46;;;;;;;16.65;6.10;;;0.30;99.90;;;;;;5016615;28;20058;-76
2021/12/23 01:03:12;;;;;;;20.92;6.80;;;0.30;99.90;;;;;;4999112;28;20532;-78
2021/12/23 01:05:38;;;;;;;19.63;7.00;;;0.20;99.90;;;;;;5016614;28;20022;-76
2021/12/23 01:08:04;;;;;;;18.35;6.43;;;0.30;99.90;;;;;;5016327;28;20079;-77
2021/12/23 01:10:30;;;;;;;14.48;6.00;;;0.20;99.90;;;;;;5016479;28;20036;-78
2021/12/23 01:13:02;;;;;;;18.92;6.28;;;0.20;99.90;;;;;;5016425;28;20124;-78
2021/12/23 01:18:08;;;;;;;20.23;6.65;;;0.20;99.90;;;;;;5016839;28;20120;-78
2021/12/23 01:20:37;;;;;;;19.98;6.82;;;0.20;99.90;;;;;;5015137;28;20029;-77
2021/12/23 01:23:10;;;;;;;;;;;0.20;99.90;;;;;;5016729;28;20426;-78
2021/12/23 01:25:38;;;;;;;13.98;6.05;;;0.20;99.90;;;;;;4985926;28;20286;-76
2021/12/23 01:28:05;;;;;;;14.38;5.60;;;0.20;99.90;;;;;;4996915;28;20475;-78
2021/12/23 01:30:32;;;;;;;18.42;6.50;;;0.20;99.90;;;;;;4997104;28;20106;-77
2021/12/23 01:32:58;;;;;;;13.98;5.63;;;0.20;99.90;;;;;;4996426;28;20031;-77
2021/12/23 01:35:25;;;;;;;13.80;6.70;;;0.10;99.90;;;;;;4995225;28;20037;-77
2021/12/23 01:37:51;;;;;;;16.63;6.60;;;0.10;99.90;;;;;;4996744;28;20057;-77
2021/12/23 01:40:18;;;;;;;21.92;6.35;;;0.10;99.90;;;;;;4995192;28;20038;-77
2021/12/23 01:42:44;;;;;;;19.63;6.35;;;0.10;99.90;;;;;;5013310;28;20037;-77
2021/12/23 01:45:16;;;;;;;16.45;7.03;;;0.10;99.90;;;;;;5016142;28;20026;-77
2021/12/23 01:47:43;;;;;;;17.45;6.95;;;0.10;99.90;;;;;;4998392;28;20089;-77
2021/12/23 01:50:11;;;;;;;21.20;6.55;;;0.00;99.90;;;;;;4997260;28;20079;-77
2021/12/23 01:52:36;;;;;;;18.70;7.00;;;0.00;99.90;;;;;;5015566;28;20030;-77
2021/12/23 01:55:03;;;;;;;21.10;6.63;;;0.10;99.90;;;;;;5016295;28;20482;-77
2021/12/23 01:57:32;;;;;;;15.82;6.45;;;0.00;99.90;;;;;;5014855;28;20038;-75
2021/12/23 01:59:59;;;;;;;16.88;6.35;;;0.00;99.90;;;;;;5013063;28;20062;-78
2021/12/23 02:02:26;;;;;;;16.42;6.80;;;0.00;99.90;;;;;;4997858;28;20030;-78
2021/12/23 02:04:52;;;;;;;20.75;6.63;;;-0.10;99.90;;;;;;4985311;28;20026;-77
2021/12/23 02:07:18;;;;;;;15.98;5.85;;;-0.10;99.90;;;;;;4995857;28;20093;-77
2021/12/23 02:09:44;;;;;;;19.17;6.82;;;-0.10;99.90;;;;;;4994593;28;20014;-77
2021/12/23 02:12:10;;;;;;;22.05;7.43;;;-0.20;99.90;;;;;;4994498;28;20026;-77
2021/12/23 02:14:36;;;;;;;20.67;6.78;;;0.20;99.90;;;;;;4996060;28;20061;-78
2021/12/23 02:17:01;;;;;;;17.73;6.55;;;-0.20;99.90;;;;;;4994418;28;20069;-77
2021/12/23 02:19:27;;;;;;;21.35;6.70;;;-0.20;99.90;;;;;;5010295;28;20038;-77
2021/12/23 02:21:53;;;;;;;17.55;6.55;;;-0.30;99.90;;;;;;4997545;28;20029;-77
2021/12/23 02:24:19;;;;;;;20.42;6.78;;;-0.30;99.90;;;;;;5015501;28;20014;-77
2021/12/23 02:26:45;;;;;;;20.63;6.72;;;-0.40;99.90;;;;;;5015175;28;20026;-77
2021/12/23 02:29:11;;;;;;;22.00;7.28;;;-0.40;99.90;;;;;;5014026;28;20018;-77
2021/12/23 02:31:37;;;;;;;19.23;6.40;;;-0.40;99.90;;;;;;4997423;28;20502;-78
2021/12/23 02:34:03;;;;;;;17.67;6.00;;;-0.40;99.90;;;;;;4996106;28;20206;-78
2021/12/23 02:36:32;;;;;;;21.90;6.53;;;-0.40;99.90;;;;;;4999606;28;20360;-78
2021/12/23 02:38:59;;;;;;;19.13;6.93;;;-0.50;99.90;;;;;;5013755;28;20029;-78
2021/12/23 02:41:25;;;;;;;16.67;6.10;;;-0.50;99.90;;;;;;5013655;28;20026;-78
2021/12/23 02:43:50;;;;;;;22.88;6.72;;;-0.50;99.90;;;;;;5013056;28;20116;-78
2021/12/23 02:46:18;;;;;;;17.48;6.32;;;-0.50;99.90;;;;;;5015909;28;20100;-78
2021/12/23 02:48:45;;;;;;;21.80;10.47;;;-0.50;99.90;;;;;;4997165;28;20032;-78
2021/12/23 02:51:12;;;;;;;17.95;7.25;;;-0.60;99.90;;;;;;5012999;28;20114;-77
2021/12/23 02:53:40;;;;;;;17.60;7.18;;;-0.50;99.90;;;;;;4997029;28;20038;-78
2021/12/23 02:56:08;;;;;;;21.58;7.05;;;-0.50;99.90;;;;;;5014920;28;20068;-77
2021/12/23 02:58:34;;;;;;;19.15;6.88;;;-0.50;99.90;;;;;;5014571;28;20084;-77
2021/12/23 03:01:01;;;;;;;20.15;6.78;;;-0.50;99.90;;;;;;5014672;28;20030;-77
2021/12/23 03:03:27;;;;;;;19.60;7.68;;;-0.50;99.90;;;;;;5014521;28;20125;-76
2021/12/23 03:05:55;;;;;;;17.70;6.85;;;-0.50;99.90;;;;;;5014950;28;20105;-76
2021/12/23 03:08:34;;;;;;;12.88;4.70;;;-0.50;99.90;;;;;;4996776;28;20030;-76
2021/12/23 03:11:01;;;;;;;21.33;7.45;;;-0.50;99.90;;;;;;5014596;28;20518;-76
2021/12/23 03:13:26;;;;;;;21.92;7.57;;;-0.50;99.90;;;;;;4996594;28;20018;-77
2021/12/23 03:15:52;;;;;;;18.85;7.35;;;-0.50;99.90;;;;;;4996707;28;20037;-77
2021/12/23 03:18:18;;;;;;;17.95;7.22;;;-0.50;99.90;;;;;;4996872;28;20499;-76
2021/12/23 03:20:43;;;;;;;17.13;7.22;;;-0.60;99.90;;;;;;4996626;28;20058;-78
2021/12/23 03:23:09;;;;;;;19.48;6.55;;;-0.60;99.90;;;;;;4996599;28;20040;-76
2021/12/23 03:25:34;;;;;;;20.73;7.50;;;-0.60;99.90;;;;;;5014250;28;20026;-77
2021/12/23 03:28:00;;;;;;;21.08;6.85;;;-0.60;99.90;;;;;;5014183;28;20101;-78
2021/12/23 03:30:25;;;;;;;20.23;6.75;;;-0.50;99.90;;;;;;5014280;28;20382;-78
2021/12/23 03:32:51;;;;;;;14.70;6.40;;;-0.50;99.90;;;;;;5014068;28;20586;-79
2021/12/23 03:35:17;;;;;;;20.27;8.35;;;-0.50;99.90;;;;;;4996590;28;20360;-79
2021/12/23 03:37:43;;;;;;;21.15;6.70;;;-0.60;99.90;;;;;;4997494;28;20037;-77
2021/12/23 03:40:10;;;;;;;19.15;7.25;;;-0.50;99.90;;;;;;5013883;28;20033;-79
2021/12/23 03:42:36;;;;;;;19.20;7.10;;;-0.50;99.90;;;;;;4984098;28;20037;-79
2021/12/23 03:45:05;;;;;;;27.10;7.78;;;-0.40;99.90;;;;;;4994216;28;20027;-79
2021/12/23 03:47:30;;;;;;;;;;;-0.40;99.90;;;;;;4993465;28;20022;-79
2021/12/23 03:49:56;;;;;;;21.70;8.10;;;-0.40;99.90;;;;;;4976825;28;19957;-78
2021/12/23 03:52:21;;;;;;;17.38;7.00;;;-0.40;99.90;;;;;;4992956;28;20036;-79
2021/12/23 03:54:47;;;;;;;20.55;6.85;;;-0.40;99.90;;;;;;4994201;28;20072;-79
2021/12/23 03:57:12;;;;;;;21.55;7.80;;;-0.40;99.90;;;;;;4992966;28;20038;-77
2021/12/23 03:59:38;;;;;;;22.42;7.32;;;-0.40;99.90;;;;;;4993082;28;20061;-77
2021/12/23 04:02:04;;;;;;;21.05;7.05;;;-0.30;99.90;;;;;;4992991;28;20053;-77
2021/12/23 04:04:30;;;;;;;21.35;7.70;;;-0.30;99.90;;;;;;5002435;28;20022;-77
2021/12/23 04:06:55;;;;;;;22.42;7.97;;;-0.40;99.90;;;;;;5013918;28;20395;-77
2021/12/23 04:09:21;;;;;;;21.73;7.63;;;-0.50;99.90;;;;;;4996158;28;20049;-77
2021/12/23 04:11:46;;;;;;;23.35;7.82;;;-0.50;99.90;;;;;;5013798;28;20022;-78
2021/12/23 04:14:12;;;;;;;19.55;7.93;;;-0.60;99.90;;;;;;5017689;28;20018;-77
2021/12/23 04:16:37;;;;;;;19.67;7.55;;;-0.60;99.90;;;;;;5017928;28;20455;-78
2021/12/23 04:19:08;;;;;;;25.77;9.60;;;-0.50;99.90;;;;;;4988801;28;20042;-77
2021/12/23 04:21:35;;;;;;;24.73;7.53;;;-0.50;99.90;;;;;;4998310;28;20018;-77
2021/12/23 04:24:01;;;;;;;19.88;7.57;;;-0.40;99.90;;;;;;4996673;28;20053;-77
2021/12/23 04:26:27;;;;;;;18.05;7.13;;;-0.40;99.90;;;;;;4997796;28;20030;-77
2021/12/23 04:28:53;;;;;;;20.60;8.15;;;-0.40;99.90;;;;;;4998112;28;20392;-77
2021/12/23 04:31:20;;;;;;;22.35;7.82;;;-0.30;99.90;;;;;;4997784;28;20018;-77
2021/12/23 04:33:48;;;;;;;24.10;7.65;;;-0.30;99.90;;;;;;4996345;28;20077;-78
2021/12/23 04:36:14;;;;;;;19.70;8.07;;;-0.30;99.90;;;;;;4997644;28;20093;-79
2021/12/23 04:38:42;;;;;;;19.25;7.18;;;-0.30;99.90;;;;;;4996622;28;20026;-80
2021/12/23 04:41:08;;;;;;;25.70;8.05;;;-0.40;99.90;;;;;;4996353;28;20038;-80
2021/12/23 04:43:34;;;;;;;23.13;8.65;;;-0.40;99.90;;;;;;4996284;28;20399;-80
2021/12/23 04:46:00;;;;;;;29.30;9.13;;;-0.30;99.90;;;;;;4996411;28;20018;-80
2021/12/23 04:48:26;;;;;;;25.65;8.93;;;-0.30;99.90;;;;;;4998054;28;20038;-80
2021/12/23 04:50:52;;;;;;;31.85;9.77;;;-0.30;99.90;;;;;;4997378;28;20035;-80
2021/12/23 04:53:18;;;;;;;27.40;10.07;;;-0.30;99.90;;;;;;4996255;28;20031;-80
2021/12/23 04:55:43;;;;;;;31.75;10.52;;;-0.30;99.90;;;;;;4997732;28;20037;-80
2021/12/23 04:58:09;;;;;;;33.67;10.70;;;-0.40;99.90;;;;;;4996233;28;20419;-80
2021/12/23 05:00:34;;;;;;;30.92;10.70;;;-0.30;99.90;;;;;;4995980;28;20030;-77
2021/12/23 05:03:00;;;;;;;38.60;12.18;;;-0.40;99.90;;;;;;4995770;28;20541;-77
2021/12/23 05:05:26;;;;;;;35.92;12.15;;;-0.40;99.90;;;;;;4997446;28;20109;-77
2021/12/23 05:07:52;;;;;;;34.10;10.60;;;-0.40;99.90;;;;;;4997066;28;20467;-77
2021/12/23 05:10:19;;;;;;;39.05;10.90;;;-0.40;99.90;;;;;;4997005;28;20029;-79
2021/12/23 05:12:46;;;;;;;43.53;12.73;;;-0.40;99.90;;;;;;4979501;28;20030;-79
2021/12/23 05:15:14;;;;;;;39.17;11.98;;;-0.40;99.90;;;;;;4996959;28;20034;-77
2021/12/23 05:17:40;;;;;;;48.47;13.25;;;-0.40;99.90;;;;;;4996982;28;20081;-77
2021/12/23 05:20:08;;;;;;;39.33;12.38;;;-0.40;99.90;;;;;;4979506;28;20018;-77
2021/12/23 05:22:33;;;;;;;39.15;13.25;;;-0.40;99.90;;;;;;4995433;28;20046;-78
2021/12/23 05:24:59;;;;;;;49.10;14.75;;;-0.40;99.90;;;;;;4995452;28;20022;-77
2021/12/23 05:27:25;;;;;;;47.45;14.30;;;-0.40;99.90;;;;;;4979237;28;20069;-77
2021/12/23 05:29:50;;;;;;;45.95;14.05;;;-0.40;99.90;;;;;;4996912;28;20045;-77
2021/12/23 05:32:16;;;;;;;48.20;14.68;;;-0.40;99.90;;;;;;4995220;28;20368;-78
2021/12/23 05:34:42;;;;;;;48.55;15.40;;;-0.30;99.90;;;;;;4979132;28;20069;-77
2021/12/23 05:37:07;;;;;;;53.35;15.73;;;-0.30;99.90;;;;;;4995972;28;20031;-77
2021/12/23 05:39:33;;;;;;;52.55;15.43;;;-0.30;99.90;;;;;;4995154;28;20026;-76
2021/12/23 05:41:58;;;;;;;49.60;13.52;;;-0.30;99.90;;;;;;4996155;28;20030;-76
2021/12/23 05:44:24;;;;;;;49.90;15.38;;;-0.40;99.90;;;;;;4995119;28;20062;-76
2021/12/23 05:46:49;;;;;;;50.08;15.82;;;-0.30;99.90;;;;;;4978805;28;20022;-76
2021/12/23 05:49:15;;;;;;;42.65;14.32;;;-0.30;99.90;;;;;;4996608;28;20030;-76
2021/12/23 05:51:41;;;;;;;48.25;13.45;;;-0.20;99.90;;;;;;4978572;28;20021;-76
2021/12/23 05:54:07;;;;;;;47.13;14.10;;;-0.30;99.90;;;;;;4979638;28;20046;-77
2021/12/23 05:56:32;;;;;;;43.60;13.73;;;-0.30;99.90;;;;;;4996567;28;20026;-79
2021/12/23 05:58:58;;;;;;;41.25;14.50;;;-0.30;99.90;;;;;;4979272;28;20030;-78
2021/12/23 06:01:24;;;;;;;47.10;14.82;;;-0.20;99.90;;;;;;4979221;28;20057;-77
2021/12/23 06:03:49;;;;;;;41.53;13.43;;;-0.20;99.90;;;;;;4998032;28;20109;-79
2021/12/23 06:06:15;;;;;;;46.88;13.77;;;-0.20;99.90;;;;;;5015351;28;20029;-77
2021/12/23 06:08:42;;;;;;;47.95;13.85;;;-0.20;99.90;;;;;;5015988;28;20159;-79
2021/12/23 06:11:08;;;;;;;43.65;14.27;;;-0.20;99.90;;;;;;4989785;28;20030;-79
2021/12/23 06:13:34;;;;;;;47.50;13.70;;;-0.20;99.90;;;;;;4996720;28;20029;-80
2021/12/23 06:16:00;;;;;;;39.40;13.00;;;-0.20;99.90;;;;;;4996672;28;20027;-78
2021/12/23 06:18:25;;;;;;;45.88;14.13;;;-0.20;99.90;;;;;;4995487;28;20113;-79
2021/12/23 06:20:51;;;;;;;46.10;13.48;;;-0.20;99.90;;;;;;4996894;28;20029;-80
2021/12/23 06:23:17;;;;;;;42.95;13.63;;;-0.30;99.90;;;;;;4995815;28;20033;-79
2021/12/23 06:25:42;;;;;;;43.17;14.00;;;-0.20;99.90;;;;;;5006643;28;20061;-78
2021/12/23 06:28:08;;;;;;;44.85;14.30;;;-0.20;99.90;;;;;;5016618;28;20135;-77
2021/12/23 06:30:34;;;;;;;37.70;12.02;;;-0.20;99.90;;;;;;5016225;28;20018;-79
2021/12/23 06:32:59;;;;;;;49.78;14.63;;;-0.20;99.90;;;;;;5015208;28;20037;-79
2021/12/23 06:35:27;;;;;;;47.00;13.23;;;-0.20;99.90;;;;;;5015510;28;20030;-79
2021/12/23 06:37:54;;;;;;;46.80;14.77;;;-0.20;99.90;;;;;;4998326;28;20026;-78
2021/12/23 06:40:20;;;;;;;49.13;14.45;;;-0.30;99.90;;;;;;4997627;28;20026;-77
2021/12/23 06:42:46;;;;;;;46.33;13.18;;;-0.10;99.90;;;;;;5013477;28;20025;-77
2021/12/23 06:45:13;;;;;;;42.85;14.23;;;-0.20;99.90;;;;;;5014715;28;20022;-76
2021/12/23 06:47:39;;;;;;;48.42;13.68;;;-0.20;99.90;;;;;;4997086;28;20034;-76
2021/12/23 06:50:07;;;;;;;42.05;13.55;;;-0.20;99.90;;;;;;5013323;28;20029;-76
2021/12/23 06:52:33;;;;;;;44.95;13.82;;;-0.20;99.90;;;;;;5013296;28;20057;-76
2021/12/23 06:54:59;;;;;;;42.67;13.27;;;-0.20;99.90;;;;;;5014795;28;20033;-76
2021/12/23 06:57:26;;;;;;;44.50;13.55;;;-0.20;99.90;;;;;;5013412;28;20397;-76
2021/12/23 06:59:52;;;;;;;42.33;12.77;;;-0.20;99.90;;;;;;5014585;28;20021;-76
2021/12/23 07:02:17;;;;;;;43.83;13.18;;;-0.20;99.90;;;;;;4996813;28;20545;-77
2021/12/23 07:04:45;;;;;;;42.67;13.43;;;-0.20;99.90;;;;;;5014429;28;20026;-77
2021/12/23 07:07:12;;;;;;;50.92;14.88;;;-0.20;99.90;;;;;;5014996;28;20453;-77
2021/12/23 07:09:41;;;;;;;44.70;14.00;;;-0.20;99.90;;;;;;5014931;28;20014;-76
2021/12/23 07:12:09;;;;;;;42.95;13.55;;;-0.10;99.90;;;;;;4993415;28;20042;-76
2021/12/23 07:14:37;;;;;;;42.10;12.75;;;-0.10;99.90;;;;;;4994602;28;20022;-76
2021/12/23 07:17:03;;;;;;;43.53;14.45;;;-0.10;99.90;;;;;;5011055;28;20057;-76
2021/12/23 07:19:29;;;;;;;42.95;12.80;;;-0.10;99.90;;;;;;5013033;28;20109;-76
2021/12/23 07:21:55;;;;;;;42.10;13.18;;;0.00;99.90;;;;;;4996690;28;20462;-76
2021/12/23 07:24:21;;;;;;;46.90;15.25;;;-0.10;99.90;;;;;;5014263;28;20024;-77
2021/12/23 07:26:47;;;;;;;43.03;13.00;;;0.00;99.90;;;;;;5014402;28;20438;-76
2021/12/23 07:29:13;;;;;;;38.10;11.55;;;0.00;99.90;;;;;;5014133;28;20107;-76
2021/12/23 07:31:38;;;;;;;47.30;14.18;;;0.00;99.90;;;;;;5014467;28;20018;-76
2021/12/23 07:34:04;;;;;;;38.70;13.57;;;0.00;99.90;;;;;;4996526;28;20023;-76
2021/12/23 07:36:30;;;;;;;40.88;13.55;;;0.00;99.90;;;;;;5014347;28;20030;-77
2021/12/23 07:38:56;;;;;;;42.40;13.13;;;0.00;99.90;;;;;;5014116;28;20026;-76
2021/12/23 07:41:22;;;;;;;41.72;14.60;;;0.10;99.90;;;;;;5014018;28;20022;-76
2021/12/23 07:46:24;;;;;;;35.25;12.30;;;0.00;99.90;;;;;;5014177;28;20026;-76
2021/12/23 07:48:50;;;;;;;43.15;14.05;;;0.00;99.90;;;;;;4996122;28;20390;-76
2021/12/23 07:51:16;;;;;;;34.90;12.07;;;0.00;99.90;;;;;;5012570;28;20372;-76
2021/12/23 07:53:42;;;;;;;40.53;12.77;;;0.10;99.90;;;;;;5013669;28;20092;-76
2021/12/23 07:56:08;;;;;;;37.00;12.25;;;0.10;99.90;;;;;;5013860;28;20030;-76
2021/12/23 07:58:33;;;;;;;36.58;11.68;;;0.00;99.90;;;;;;5013784;28;20032;-77
2021/12/23 08:00:59;;;;;;;38.15;12.77;;;0.00;99.90;;;;;;5014024;28;20025;-76
2021/12/23 08:03:24;;;;;;;36.53;12.50;;;0.00;99.90;;;;;;5013375;28;20114;-76
2021/12/23 08:05:52;;;;;;;38.20;12.35;;;0.00;99.90;;;;;;4995619;28;20018;-76
2021/12/23 08:08:18;;;;;;;38.80;12.63;;;0.00;99.90;;;;;;4999091;28;20460;-76
2021/12/23 08:10:44;;;;;;;42.25;13.52;;;0.00;99.90;;;;;;4993864;28;20022;-76
2021/12/23 08:13:09;;;;;;;43.28;13.68;;;0.00;99.90;;;;;;4994198;28;20048;-77
2021/12/23 08:15:35;;;;;;;38.83;13.20;;;0.00;99.90;;;;;;4993891;28;20387;-76
2021/12/23 08:18:00;;;;;;;41.58;13.82;;;0.00;99.90;;;;;;4975935;28;20045;-76
2021/12/23 08:20:28;;;;;;;46.47;12.98;;;0.10;99.90;;;;;;4975807;28;20101;-76
2021/12/23 08:22:54;;;;;;;41.58;12.43;;;0.10;99.90;;;;;;4993742;28;20029;-77
2021/12/23 08:25:22;;;;;;;38.05;14.02;;;0.00;99.90;;;;;;4993761;28;20023;-76
2021/12/23 08:27:48;;;;;;;43.63;14.02;;;0.00;99.90;;;;;;4976259;28;20033;-76
2021/12/23 08:30:18;;;;;;;42.33;13.05;;;0.00;99.90;;;;;;5004674;28;20026;-76
2021/12/23 08:32:44;;;;;;;40.38;13.82;;;0.10;99.90;;;;;;5001710;28;20109;-76
2021/12/23 08:35:10;;;;;;;39.70;14.05;;;0.10;99.90;;;;;;5012145;28;20497;-76
2021/12/23 08:37:37;;;;;;;45.85;14.10;;;0.10;99.90;;;;;;4995694;28;20025;-76
2021/12/23 08:40:04;;;;;;;38.03;12.80;;;0.10;99.90;;;;;;5013355;28;20037;-76
2021/12/23 08:42:30;;;;;;;41.08;13.32;;;0.10;99.90;;;;;;5013127;28;20065;-76
2021/12/23 08:44:56;;;;;;;39.95;12.00;;;0.10;99.90;;;;;;4995522;28;20025;-76
2021/12/23 08:47:21;;;;;;;38.67;13.13;;;0.10;99.90;;;;;;5013090;28;20037;-76
2021/12/23 08:49:47;;;;;;;40.83;12.77;;;0.10;99.90;;;;;;4995666;28;20018;-76
2021/12/23 08:52:13;;;;;;;41.38;11.85;;;0.20;99.90;;;;;;5013180;28;20026;-76
2021/12/23 08:54:42;;;;;;;44.75;13.43;;;0.20;99.90;;;;;;5013140;28;20034;-77
2021/12/23 08:57:08;;;;;;;36.22;13.35;;;0.20;99.90;;;;;;4995452;28;20018;-76
2021/12/23 08:59:34;;;;;;;38.55;11.80;;;0.20;99.90;;;;;;5016103;28;20406;-76
2021/12/23 09:02:00;;;;;;;39.40;13.45;;;0.20;99.90;;;;;;5016587;28;20022;-76
2021/12/23 09:04:26;;;;;;;41.30;12.90;;;-1.20;99.90;;;;;;4999202;28;20026;-77
2021/12/23 09:06:51;;;;;;;41.65;13.43;;;0.40;99.90;;;;;;4999062;28;20021;-77
2021/12/23 09:09:18;;;;;;;43.95;12.30;;;0.40;99.90;;;;;;5016465;28;20018;-76
2021/12/23 09:11:44;;;;;;;38.78;12.07;;;0.40;99.90;;;;;;5016644;28;20525;-76
2021/12/23 09:14:09;;;;;;;42.65;12.07;;;0.40;99.90;;;;;;5016653;28;20033;-77
2021/12/23 09:16:35;;;;;;;39.75;11.18;;;0.40;99.90;;;;;;5016657;28;20030;-76
2021/12/23 09:19:02;;;;;;;36.60;12.77;;;0.40;99.90;;;;;;5015143;28;20026;-76
2021/12/23 09:21:27;;;;;;;34.63;11.38;;;0.50;99.90;;;;;;5016175;28;20049;-77
2021/12/23 09:23:53;;;;;;;44.80;13.60;;;0.50;99.90;;;;;;5016253;28;20057;-77
2021/12/23 09:26:18;;;;;;;42.13;12.88;;;0.60;99.90;;;;;;5013434;28;20022;-76
2021/12/23 09:34:03;;;;;;;44.97;12.30;;;0.70;99.90;;;;;;4996619;28;20526;-76
2021/12/23 09:36:29;;;;;;;35.05;12.10;;;0.80;99.90;;;;;;4996506;28;20026;-76
2021/12/23 09:38:54;;;;;;;39.95;12.38;;;0.80;99.90;;;;;;4979626;28;20022;-76
2021/12/23 09:41:21;;;;;;;44.80;14.05;;;0.70;99.90;;;;;;5008730;28;20533;-76
2021/12/23 09:44:10;;;;;;;38.30;11.65;;;0.80;99.90;;;;;;5014931;28;20558;-76
2021/12/23 09:46:37;;;;;;;36.80;11.90;;;0.80;99.90;;;;;;5014491;28;20022;-77
2021/12/23 09:49:04;;;;;;;36.55;10.40;;;0.80;99.90;;;;;;4995314;28;20415;-76
2021/12/23 09:51:32;;;;;;;41.20;12.73;;;0.90;99.90;;;;;;4996457;28;20483;-76
2021/12/23 09:54:00;;;;;;;40.73;12.13;;;0.90;99.90;;;;;;4996721;28;20030;-76
2021/12/23 09:56:28;;;;;;;36.60;10.03;;;0.90;99.90;;;;;;5014123;28;20082;-77
2021/12/23 09:58:57;;;;;;;37.63;11.48;;;1.00;99.90;;;;;;4998367;28;20025;-76
2021/12/23 10:01:23;;;;;;;38.55;11.52;;;1.00;99.90;;;;;;5014772;28;20128;-76
2021/12/23 10:03:49;;;;;;;38.97;11.80;;;1.00;99.90;;;;;;5016004;28;20056;-76
2021/12/23 10:06:15;;;;;;;41.53;12.55;;;1.00;99.90;;;;;;4998301;28;20021;-77
2021/12/23 10:08:41;;;;;;;39.50;12.38;;;1.10;99.90;;;;;;5016227;28;20022;-77
2021/12/23 10:11:20;;;;;;;44.60;13.60;;;1.10;99.90;;;;;;5014977;28;20057;-76
2021/12/23 10:30:28;;;;;;;34.60;11.55;;;1.30;99.90;;;;;;5016389;28;20026;-77
2021/12/23 10:38:37;;;;;;;42.65;12.32;;;1.30;99.90;;;;;;5015722;28;20044;-76
2021/12/23 10:41:13;;;;;;;34.38;11.60;;;1.40;99.90;;;;;;4997993;28;20026;-77
2021/12/23 10:43:58;;;;;;;40.10;12.52;;;1.40;99.90;;;;;;5013599;28;20168;-77
2021/12/23 10:46:28;;;;;;;38.83;12.55;;;1.40;99.90;;;;;;5014217;28;20076;-76
2021/12/23 10:49:20;;;;;;;46.83;13.90;;;1.50;99.90;;;;;;5014009;28;20021;-77
2021/12/23 10:51:57;;;;;;;35.65;11.30;;;1.50;99.90;;;;;;5015416;28;20466;-77
2021/12/23 11:00:12;;;;;;;38.25;12.38;;;1.60;99.90;;;;;;5015970;28;20061;-77
2021/12/23 11:02:40;;;;;;;36.10;11.57;;;1.70;99.90;;;;;;4997172;28;20051;-77
2021/12/23 11:07:57;;;;;;;40.05;11.73;;;1.80;99.90;;;;;;5014959;28;20030;-77
2021/12/23 11:10:53;;;;;;;36.38;11.10;;;1.80;99.90;;;;;;5014867;28;20021;-76
2021/12/23 11:38:59;;;;;;;34.20;11.23;;;2.50;99.90;;;;;;5006942;28;20061;-76
2021/12/23 11:43:57;;;;;;;38.58;11.88;;;2.70;99.90;;;;;;5014455;28;20125;-77
2021/12/23 11:46:46;;;;;;;37.50;12.95;;;2.80;99.90;;;;;;5014135;28;20014;-77
2021/12/23 11:49:13;;;;;;;32.40;11.82;;;2.80;99.90;;;;;;4996600;28;20033;-77
2021/12/23 11:54:08;;;;;;;42.20;11.90;;;2.90;99.90;;;;;;5014054;28;20494;-77
2021/12/23 11:56:39;;;;;;;35.13;11.82;;;2.90;99.90;;;;;;5014929;28;20036;-77
2021/12/23 11:59:05;;;;;;;35.63;10.98;;;2.90;99.90;;;;;;4996467;28;20084;-76
2021/12/23 12:01:48;;;;;;;37.03;11.57;;;2.90;99.90;;;;;;4996476;28;20073;-77
2021/12/23 12:04:25;;;;;;;28.58;9.70;;;3.00;99.90;;;;;;5012610;28;20062;-77
2021/12/23 12:06:53;;;;;;;37.22;11.10;;;3.00;99.90;;;;;;4996404;28;20435;-77
2021/12/23 12:09:27;;;;;;;40.70;12.05;;;3.00;99.90;;;;;;5012562;28;20498;-77
2021/12/23 12:12:06;;;;;;;37.00;11.07;;;3.00;99.90;;;;;;5012541;28;20076;-77
2021/12/23 12:14:41;;;;;;;;;;;3.00;99.90;;;;;;5013057;28;20026;-76
2021/12/23 12:17:25;;;;;;;36.55;10.55;;;3.10;99.90;;;;;;4996783;28;20351;-77
2021/12/23 12:19:58;;;;;;;38.25;11.07;;;3.10;99.90;;;;;;5014502;28;20026;-77
2021/12/23 12:22:56;;;;;;;40.25;13.15;;;3.20;99.90;;;;;;5012503;28;20034;-76
2021/12/23 12:25:25;;;;;;;33.25;10.18;;;3.20;99.90;;;;;;5012708;28;20022;-76
2021/12/23 12:27:51;;;;;;;37.03;11.90;;;3.30;99.90;;;;;;5014445;28;20091;-77
2021/12/23 12:30:21;;;;;;;38.28;12.48;;;3.30;99.90;;;;;;4996160;28;20025;-77
2021/12/23 12:32:47;;;;;;;37.13;13.07;;;3.30;99.90;;;;;;4996354;28;20022;-76
2021/12/23 12:35:20;;;;;;;38.00;11.05;;;3.30;99.90;;;;;;4999815;28;20041;-77
2021/12/23 12:37:50;;;;;;;41.20;11.73;;;3.30;99.90;;;;;;5016295;28;20026;-77
2021/12/23 12:40:16;;;;;;;39.92;12.07;;;5.00;99.90;;;;;;5016246;28;20108;-77
2021/12/23 12:42:45;;;;;;;33.95;12.02;;;3.30;99.90;;;;;;5017810;28;20455;-77
2021/12/23 12:45:22;;;;;;;41.10;12.35;;;3.30;99.90;;;;;;5017873;28;20022;-77
2021/12/23 12:47:53;;;;;;;37.20;12.35;;;3.30;99.90;;;;;;5017530;28;20029;-77
2021/12/23 12:50:25;;;;;;;45.70;11.25;;;3.30;99.90;;;;;;5018228;28;20109;-77
2021/12/23 12:52:51;;;;;;;37.75;11.95;;;3.40;99.90;;;;;;4999910;28;20038;-77
2021/12/23 12:55:23;;;;;;;34.20;11.45;;;3.40;99.90;;;;;;5017533;28;20032;-77
2021/12/23 12:57:57;;;;;;;37.10;11.45;;;3.40;99.90;;;;;;5017369;28;20107;-77
2021/12/23 13:00:31;;;;;;;37.15;11.27;;;3.50;99.90;;;;;;5017389;28;20014;-77
2021/12/23 13:03:07;;;;;;;37.15;11.18;;;3.50;99.90;;;;;;5016940;28;20036;-77
2021/12/23 13:05:40;;;;;;;37.35;12.93;;;3.60;99.90;;;;;;4999460;28;20044;-77
2021/12/23 13:08:15;;;;;;;37.08;11.98;;;3.60;99.90;;;;;;5015603;28;20395;-77
2021/12/23 13:10:46;;;;;;;32.08;10.73;;;3.70;99.90;;;;;;5017120;28;20022;-77
2021/12/23 13:13:35;;;;;;;35.88;11.68;;;3.80;99.90;;;;;;5015362;28;20022;-77
2021/12/23 13:16:15;;;;;;;30.63;11.02;;;3.90;99.90;;;;;;5015498;28;20028;-77
2021/12/23 13:18:41;;;;;;;37.28;10.60;;;3.90;99.90;;;;;;5015331;28;20026;-77
2021/12/23 13:21:06;;;;;;;32.08;10.52;;;3.90;99.90;;;;;;5015032;28;20165;-77
2021/12/23 13:23:37;;;;;;;37.83;12.25;;;3.90;99.90;;;;;;5015112;28;20445;-77
2021/12/23 13:26:05;;;;;;;33.83;10.73;;;4.00;99.90;;;;;;5015044;28;20026;-77
2021/12/23 13:28:35;;;;;;;34.00;12.23;;;4.00;99.90;;;;;;5016282;28;20026;-77
2021/12/23 13:31:04;;;;;;;32.80;10.02;;;4.10;99.90;;;;;;4998576;28;20030;-77
2021/12/23 13:33:30;;;;;;;32.72;12.05;;;4.00;99.90;;;;;;5016378;28;20034;-77
2021/12/23 13:35:57;;;;;;;34.78;11.85;;;4.00;99.90;;;;;;5014994;28;20022;-76
2021/12/23 13:38:34;;;;;;;36.28;11.52;;;3.90;99.90;;;;;;4998630;28;20498;-78
2021/12/23 13:41:15;;;;;;;32.28;11.02;;;3.90;99.90;;;;;;5016507;28;20467;-78
2021/12/23 13:43:41;;;;;;;32.50;11.00;;;3.90;99.90;;;;;;5016111;28;20379;-79
2021/12/23 13:46:08;;;;;;;35.28;12.63;;;4.20;99.90;;;;;;5013753;28;20018;-80
2021/12/23 13:48:58;;;;;;;31.95;10.90;;;3.80;99.90;;;;;;5014880;28;20475;-78
2021/12/23 13:51:27;;;;;;;30.90;10.45;;;3.80;99.90;;;;;;5014761;28;20022;-79
2021/12/23 13:54:15;;;;;;;31.83;10.77;;;3.90;99.90;;;;;;5014701;28;20105;-79
2021/12/23 13:56:51;;;;;;;38.27;11.17;;;4.00;99.90;;;;;;5015113;28;20026;-79
2021/12/23 13:59:21;;;;;;;36.53;10.63;;;4.00;99.90;;;;;;5016139;28;20483;-79
2021/12/23 14:01:58;;;;;;;37.33;13.65;;;4.00;99.90;;;;;;4998996;28;20108;-79